sensor_id;sensor_type;location;lat;lon;timestamp;P1;durP1;ratioP1;P2;durP2;ratioP2
27979;SDS011;15315;50.836;4.430;2022-12-05T00:03:09;100.97;;;38.65;;
27979;SDS011;15315;50.836;4.430;2022-12-05T00:13:10;91.82;;;36.15;;
27979;SDS011;15315;50.836;4.430;2022-12-05T00:23:10;84.53;;;34.28;;
27979;SDS011;15315;50.836;4.430;2022-12-05T00:33:10;83.28;;;33.20;;
27979;SDS011;15315;50.836;4.430;2022-12-05T00:43:11;76.75;;;32.42;;
27979;SDS011;15315;50.836;4.430;2022-12-05T00:53:11;76.35;;;31.65;;
27979;SDS011;15315;50.836;4.430;2022-12-05T01:03:11;66.13;;;28.05;;
27979;SDS011;15315;50.836;4.430;2022-12-05T01:13:12;71.43;;;29.27;;
27979;SDS011;15315;50.836;4.430;2022-12-05T01:23:12;76.07;;;29.95;;
27979;SDS011;15315;50.836;4.430;2022-12-05T01:33:13;66.78;;;29.08;;
27979;SDS011;15315;50.836;4.430;2022-12-05T01:43:15;75.65;;;29.90;;
27979;SDS011;15315;50.836;4.430;2022-12-05T01:53:17;78.95;;;30.27;;
27979;SDS011;15315;50.836;4.430;2022-12-05T02:03:18;77.65;;;31.88;;
27979;SDS011;15315;50.836;4.430;2022-12-05T02:13:40;81.68;;;31.13;;
27979;SDS011;15315;50.836;4.430;2022-12-05T02:23:57;87.00;;;32.22;;
27979;SDS011;15315;50.836;4.430;2022-12-05T02:34:30;82.55;;;32.50;;
27979;SDS011;15315;50.836;4.430;2022-12-05T02:54:38;87.50;;;32.63;;
27979;SDS011;15315;50.836;4.430;2022-12-05T03:04:41;86.75;;;34.50;;
27979;SDS011;15315;50.836;4.430;2022-12-05T03:14:43;88.88;;;32.33;;
27979;SDS011;15315;50.836;4.430;2022-12-05T03:24:53;76.63;;;32.20;;
27979;SDS011;15315;50.836;4.430;2022-12-05T03:34:57;82.40;;;31.70;;
27979;SDS011;15315;50.836;4.430;2022-12-05T03:45:02;81.55;;;32.22;;
27979;SDS011;15315;50.836;4.430;2022-12-05T03:55:08;77.93;;;31.83;;
27979;SDS011;15315;50.836;4.430;2022-12-05T04:05:23;72.30;;;29.07;;
27979;SDS011;15315;50.836;4.430;2022-12-05T04:15:26;66.80;;;29.23;;
27979;SDS011;15315;50.836;4.430;2022-12-05T04:25:54;70.30;;;29.10;;
27979;SDS011;15315;50.836;4.430;2022-12-05T04:36:02;77.00;;;29.85;;
27979;SDS011;15315;50.836;4.430;2022-12-05T04:46:12;66.57;;;26.98;;
27979;SDS011;15315;50.836;4.430;2022-12-05T04:56:15;54.55;;;25.38;;
27979;SDS011;15315;50.836;4.430;2022-12-05T05:06:19;57.88;;;26.15;;
27979;SDS011;15315;50.836;4.430;2022-12-05T05:16:21;60.78;;;27.52;;
27979;SDS011;15315;50.836;4.430;2022-12-05T05:26:23;73.07;;;29.27;;
27979;SDS011;15315;50.836;4.430;2022-12-05T05:36:25;64.05;;;29.52;;
27979;SDS011;15315;50.836;4.430;2022-12-05T05:46:27;70.57;;;29.88;;
27979;SDS011;15315;50.836;4.430;2022-12-05T05:56:30;74.93;;;30.13;;
27979;SDS011;15315;50.836;4.430;2022-12-05T06:06:30;75.38;;;29.95;;
27979;SDS011;15315;50.836;4.430;2022-12-05T06:16:30;74.10;;;29.55;;
27979;SDS011;15315;50.836;4.430;2022-12-05T06:26:31;73.85;;;29.52;;
27979;SDS011;15315;50.836;4.430;2022-12-05T06:36:31;71.20;;;30.40;;
27979;SDS011;15315;50.836;4.430;2022-12-05T06:46:32;75.60;;;29.73;;
27979;SDS011;15315;50.836;4.430;2022-12-05T06:56:32;76.82;;;30.27;;
27979;SDS011;15315;50.836;4.430;2022-12-05T07:06:33;67.35;;;28.98;;
27979;SDS011;15315;50.836;4.430;2022-12-05T07:16:34;66.70;;;28.73;;
27979;SDS011;15315;50.836;4.430;2022-12-05T07:26:35;69.50;;;29.67;;
27979;SDS011;15315;50.836;4.430;2022-12-05T07:36:35;69.13;;;28.20;;
27979;SDS011;15315;50.836;4.430;2022-12-05T07:46:36;60.28;;;27.30;;
27979;SDS011;15315;50.836;4.430;2022-12-05T07:56:36;55.50;;;25.88;;
27979;SDS011;15315;50.836;4.430;2022-12-05T08:06:36;68.82;;;29.35;;
27979;SDS011;15315;50.836;4.430;2022-12-05T08:16:37;69.22;;;30.08;;
27979;SDS011;15315;50.836;4.430;2022-12-05T08:26:38;78.03;;;30.65;;
27979;SDS011;15315;50.836;4.430;2022-12-05T08:36:39;57.03;;;27.15;;
27979;SDS011;15315;50.836;4.430;2022-12-05T08:46:39;57.53;;;26.40;;
27979;SDS011;15315;50.836;4.430;2022-12-05T08:56:40;69.13;;;28.13;;
27979;SDS011;15315;50.836;4.430;2022-12-05T09:06:40;62.25;;;27.38;;
27979;SDS011;15315;50.836;4.430;2022-12-05T09:16:42;55.95;;;24.88;;
27979;SDS011;15315;50.836;4.430;2022-12-05T09:26:43;52.42;;;24.25;;
27979;SDS011;15315;50.836;4.430;2022-12-05T09:36:44;44.73;;;23.10;;
27979;SDS011;15315;50.836;4.430;2022-12-05T09:56:53;38.30;;;21.85;;
27979;SDS011;15315;50.836;4.430;2022-12-05T10:07:00;33.25;;;19.75;;
27979;SDS011;15315;50.836;4.430;2022-12-05T10:17:18;34.75;;;20.38;;
27979;SDS011;15315;50.836;4.430;2022-12-05T10:37:36;28.17;;;16.40;;
27979;SDS011;15315;50.836;4.430;2022-12-05T10:47:36;30.33;;;17.00;;
27979;SDS011;15315;50.836;4.430;2022-12-05T10:57:36;26.77;;;16.50;;
27979;SDS011;15315;50.836;4.430;2022-12-05T11:17:47;23.27;;;13.73;;
27979;SDS011;15315;50.836;4.430;2022-12-05T11:27:49;18.75;;;12.25;;
27979;SDS011;15315;50.836;4.430;2022-12-05T11:37:55;19.30;;;12.30;;
27979;SDS011;15315;50.836;4.430;2022-12-05T12:08:22;20.60;;;12.20;;
27979;SDS011;15315;50.836;4.430;2022-12-05T13:10:29;24.43;;;14.57;;
27979;SDS011;15315;50.836;4.430;2022-12-05T13:20:34;26.58;;;15.35;;
27979;SDS011;15315;50.836;4.430;2022-12-05T13:30:35;32.17;;;16.38;;
27979;SDS011;15315;50.836;4.430;2022-12-05T13:40:56;22.25;;;13.23;;
27979;SDS011;15315;50.836;4.430;2022-12-05T13:51:21;20.40;;;13.40;;
27979;SDS011;15315;50.836;4.430;2022-12-05T14:01:40;23.20;;;13.97;;
27979;SDS011;15315;50.836;4.430;2022-12-05T14:32:24;27.88;;;15.85;;
27979;SDS011;15315;50.836;4.430;2022-12-05T14:42:32;28.33;;;16.20;;
27979;SDS011;15315;50.836;4.430;2022-12-05T14:52:36;28.80;;;16.00;;
27979;SDS011;15315;50.836;4.430;2022-12-05T15:02:42;31.00;;;16.00;;
27979;SDS011;15315;50.836;4.430;2022-12-05T15:12:46;23.83;;;14.60;;
27979;SDS011;15315;50.836;4.430;2022-12-05T15:22:49;34.40;;;16.63;;
27979;SDS011;15315;50.836;4.430;2022-12-05T15:32:50;38.47;;;18.52;;
27979;SDS011;15315;50.836;4.430;2022-12-05T15:42:54;42.65;;;21.33;;
27979;SDS011;15315;50.836;4.430;2022-12-05T15:52:58;41.55;;;21.52;;
27979;SDS011;15315;50.836;4.430;2022-12-05T16:03:11;42.13;;;21.70;;
27979;SDS011;15315;50.836;4.430;2022-12-05T16:13:18;57.27;;;26.87;;
27979;SDS011;15315;50.836;4.430;2022-12-05T16:33:36;59.40;;;29.27;;
27979;SDS011;15315;50.836;4.430;2022-12-05T16:53:37;60.22;;;29.15;;
27979;SDS011;15315;50.836;4.430;2022-12-05T17:03:42;57.65;;;28.13;;
27979;SDS011;15315;50.836;4.430;2022-12-05T17:13:42;53.28;;;27.38;;
27979;SDS011;15315;50.836;4.430;2022-12-05T17:23:44;53.17;;;26.40;;
27979;SDS011;15315;50.836;4.430;2022-12-05T17:33:45;58.65;;;30.85;;
27979;SDS011;15315;50.836;4.430;2022-12-05T17:43:47;49.35;;;25.40;;
27979;SDS011;15315;50.836;4.430;2022-12-05T17:53:48;54.50;;;27.70;;
27979;SDS011;15315;50.836;4.430;2022-12-05T18:03:49;60.47;;;28.50;;
27979;SDS011;15315;50.836;4.430;2022-12-05T18:13:50;54.92;;;28.13;;
27979;SDS011;15315;50.836;4.430;2022-12-05T18:23:50;59.25;;;31.60;;
27979;SDS011;15315;50.836;4.430;2022-12-05T18:33:50;64.47;;;32.60;;
27979;SDS011;15315;50.836;4.430;2022-12-05T18:43:51;60.15;;;32.03;;
27979;SDS011;15315;50.836;4.430;2022-12-05T18:53:52;73.30;;;37.67;;
27979;SDS011;15315;50.836;4.430;2022-12-05T19:03:54;57.00;;;30.95;;
27979;SDS011;15315;50.836;4.430;2022-12-05T19:13:57;59.88;;;31.85;;
27979;SDS011;15315;50.836;4.430;2022-12-05T19:24:00;67.93;;;34.30;;
27979;SDS011;15315;50.836;4.430;2022-12-05T19:34:02;73.32;;;35.83;;
27979;SDS011;15315;50.836;4.430;2022-12-05T19:44:05;67.43;;;33.17;;
27979;SDS011;15315;50.836;4.430;2022-12-05T19:54:05;68.03;;;33.35;;
27979;SDS011;15315;50.836;4.430;2022-12-05T20:04:11;58.70;;;31.27;;
27979;SDS011;15315;50.836;4.430;2022-12-05T20:14:13;56.72;;;30.27;;
27979;SDS011;15315;50.836;4.430;2022-12-05T20:24:14;45.75;;;25.80;;
27979;SDS011;15315;50.836;4.430;2022-12-05T20:34:14;48.33;;;26.45;;
27979;SDS011;15315;50.836;4.430;2022-12-05T20:44:14;46.42;;;25.30;;
27979;SDS011;15315;50.836;4.430;2022-12-05T20:54:15;48.92;;;25.80;;
27979;SDS011;15315;50.836;4.430;2022-12-05T21:04:17;44.22;;;24.15;;
27979;SDS011;15315;50.836;4.430;2022-12-05T21:14:17;42.70;;;24.75;;
27979;SDS011;15315;50.836;4.430;2022-12-05T21:24:18;46.08;;;24.33;;
27979;SDS011;15315;50.836;4.430;2022-12-05T21:34:18;45.35;;;25.52;;
27979;SDS011;15315;50.836;4.430;2022-12-05T21:44:20;32.67;;;19.55;;
27979;SDS011;15315;50.836;4.430;2022-12-05T21:54:20;30.35;;;18.95;;
27979;SDS011;15315;50.836;4.430;2022-12-05T22:04:21;28.52;;;16.90;;
27979;SDS011;15315;50.836;4.430;2022-12-05T22:14:21;25.58;;;15.68;;
27979;SDS011;15315;50.836;4.430;2022-12-05T22:24:22;27.23;;;15.90;;
27979;SDS011;15315;50.836;4.430;2022-12-05T22:34:22;32.33;;;17.30;;
27979;SDS011;15315;50.836;4.430;2022-12-05T22:44:22;28.30;;;16.23;;
27979;SDS011;15315;50.836;4.430;2022-12-05T22:54:23;27.65;;;16.58;;
27979;SDS011;15315;50.836;4.430;2022-12-05T23:04:23;23.67;;;14.30;;
27979;SDS011;15315;50.836;4.430;2022-12-05T23:14:24;29.77;;;14.55;;
27979;SDS011;15315;50.836;4.430;2022-12-05T23:24:24;26.05;;;14.82;;
27979;SDS011;15315;50.836;4.430;2022-12-05T23:34:24;25.50;;;15.20;;
27979;SDS011;15315;50.836;4.430;2022-12-05T23:44:25;23.70;;;13.98;;
27979;SDS011;15315;50.836;4.430;2022-12-05T23:54:25;23.98;;;13.40;;
